createdAt,value
2018-12-11T00:02:08.504Z,7.60
2018-12-11T00:04:35.963Z,7.50
2018-12-11T00:07:03.442Z,7.70
2018-12-11T00:09:31.629Z,7.80
2018-12-11T00:11:59.057Z,7.80
2018-12-11T00:14:26.497Z,7.70
2018-12-11T00:16:54.085Z,7.80
2018-12-11T00:19:21.537Z,7.90
2018-12-11T00:21:49.004Z,7.80
2018-12-11T00:24:16.514Z,7.90
2018-12-11T00:26:43.944Z,8.10
2018-12-11T00:29:11.416Z,8.30
2018-12-11T00:31:38.841Z,7.90
2018-12-11T00:34:06.307Z,7.50
2018-12-11T00:36:33.867Z,7.50
2018-12-11T00:39:01.294Z,7.90
2018-12-11T00:41:28.706Z,7.70
2018-12-11T00:43:56.226Z,7.90
2018-12-11T00:46:23.720Z,8.20
2018-12-11T00:48:51.273Z,7.90
2018-12-11T00:51:18.705Z,7.70
2018-12-11T00:53:46.137Z,7.70
2018-12-11T00:56:13.624Z,7.50
2018-12-11T00:58:41.067Z,7.80
2018-12-11T01:01:08.526Z,7.60
2018-12-11T01:03:35.964Z,7.30
2018-12-11T01:06:03.422Z,7.50
2018-12-11T01:08:31.888Z,7.30
2018-12-11T01:10:59.422Z,7.60
2018-12-11T01:13:26.873Z,7.50
2018-12-11T01:15:54.398Z,7.80
2018-12-11T01:18:21.834Z,7.70
2018-12-11T01:20:49.367Z,7.10
2018-12-11T01:23:16.813Z,6.80
2018-12-11T01:25:44.337Z,6.70
2018-12-11T01:28:11.750Z,7.20
2018-12-11T01:30:39.195Z,7.30
2018-12-11T01:33:06.611Z,7.30
2018-12-11T01:35:34.166Z,6.70
2018-12-11T01:38:01.613Z,6.50
2018-12-11T01:40:29.096Z,6.40
2018-12-11T01:42:56.541Z,6.70
2018-12-11T01:45:24.006Z,6.70
2018-12-11T01:47:51.473Z,7.20
2018-12-11T01:50:18.927Z,7.10
2018-12-11T01:52:46.356Z,6.80
2018-12-11T01:55:13.942Z,7.10
2018-12-11T01:57:41.405Z,6.90
2018-12-11T02:00:08.942Z,6.80
2018-12-11T02:02:36.393Z,6.60
2018-12-11T02:05:04.183Z,6.50
2018-12-11T02:07:31.895Z,6.10
2018-12-11T02:09:59.321Z,6.20
2018-12-11T02:12:26.791Z,6.30
2018-12-11T02:14:54.258Z,6.30
2018-12-11T02:17:21.768Z,6.80
2018-12-11T02:19:49.256Z,6.50
2018-12-11T02:22:16.744Z,6.90
2018-12-11T02:24:44.175Z,6.50
2018-12-11T02:27:11.669Z,6.70
2018-12-11T02:29:39.091Z,6.60
2018-12-11T02:32:06.721Z,6.50
2018-12-11T02:34:34.192Z,6.60
2018-12-11T02:37:01.849Z,6.60
2018-12-11T02:39:29.382Z,6.20
2018-12-11T02:41:56.832Z,6.30
2018-12-11T02:44:24.326Z,6.70
2018-12-11T02:46:51.784Z,6.80
2018-12-11T02:49:19.199Z,7.20
2018-12-11T02:51:46.685Z,7.10
2018-12-11T02:54:14.129Z,7.00
2018-12-11T02:56:41.588Z,6.80
2018-12-11T02:59:14.224Z,6.80
2018-12-11T03:01:41.655Z,7.10
2018-12-11T03:04:09.099Z,6.80
2018-12-11T03:06:36.555Z,6.90
2018-12-11T03:09:06.236Z,6.60
2018-12-11T03:11:34.158Z,6.50
2018-12-11T03:14:02.631Z,6.50
2018-12-11T03:16:30.184Z,6.60
2018-12-11T03:18:57.699Z,6.70
2018-12-11T03:21:25.195Z,6.60
2018-12-11T03:23:52.661Z,6.50
2018-12-11T03:26:20.128Z,6.60
2018-12-11T03:28:47.654Z,6.60
2018-12-11T03:31:15.155Z,7.30
2018-12-11T03:33:42.647Z,7.20
2018-12-11T03:36:10.060Z,7.40
2018-12-11T03:38:37.607Z,6.70
2018-12-11T03:41:05.068Z,6.80
2018-12-11T03:43:32.498Z,6.60
2018-12-11T03:45:59.973Z,6.50
2018-12-11T03:48:27.434Z,6.60
2018-12-11T03:50:54.900Z,7.00
2018-12-11T03:53:22.458Z,7.00
2018-12-11T03:55:49.873Z,7.30
2018-12-11T03:58:17.388Z,7.10
2018-12-11T04:00:44.921Z,6.90
2018-12-11T04:03:12.387Z,7.00
2018-12-11T04:05:39.856Z,7.00
2018-12-11T04:08:07.297Z,7.00
2018-12-11T04:10:34.734Z,7.00
2018-12-11T04:13:02.161Z,6.40
2018-12-11T04:15:29.606Z,6.90
2018-12-11T04:17:57.214Z,6.80
2018-12-11T04:20:24.701Z,6.40
2018-12-11T04:22:52.213Z,6.00
2018-12-11T04:25:19.639Z,5.90
2018-12-11T04:27:47.179Z,6.20
2018-12-11T04:30:14.594Z,6.20
2018-12-11T04:32:42.045Z,6.60
2018-12-11T04:35:09.472Z,6.30
2018-12-11T04:37:37.020Z,6.30
2018-12-11T04:40:05.713Z,6.30
2018-12-11T04:42:33.369Z,6.40
2018-12-11T04:45:00.902Z,6.30
2018-12-11T04:47:28.370Z,6.20
2018-12-11T04:49:55.873Z,6.20
2018-12-11T04:52:23.321Z,6.50
2018-12-11T04:54:50.842Z,6.30
2018-12-11T04:57:18.410Z,6.50
2018-12-11T04:59:45.866Z,6.50
2018-12-11T05:02:13.296Z,6.70
2018-12-11T05:04:40.835Z,6.40
2018-12-11T05:07:08.337Z,5.90
2018-12-11T05:09:35.798Z,6.20
2018-12-11T05:12:03.366Z,6.40
2018-12-11T05:14:30.786Z,6.50
2018-12-11T05:16:58.218Z,6.40
2018-12-11T05:19:25.637Z,6.60
2018-12-11T05:21:53.087Z,6.40
2018-12-11T05:24:20.501Z,6.60
2018-12-11T05:26:48.014Z,6.80
2018-12-11T05:29:15.428Z,6.50
2018-12-11T05:31:42.989Z,6.80
2018-12-11T05:34:10.405Z,6.90
2018-12-11T05:36:37.834Z,6.70
2018-12-11T05:39:06.004Z,6.50
2018-12-11T05:41:33.417Z,6.60
2018-12-11T05:44:00.919Z,6.50
2018-12-11T05:46:28.374Z,6.50
2018-12-11T05:48:55.936Z,6.50
2018-12-11T05:51:23.395Z,6.50
2018-12-11T05:53:50.851Z,6.90
2018-12-11T05:56:18.314Z,6.90
2018-12-11T05:58:45.763Z,7.00
2018-12-11T06:01:13.224Z,6.90
2018-12-11T06:03:40.629Z,7.10
2018-12-11T06:06:08.081Z,6.80
2018-12-11T06:08:35.602Z,6.80
2018-12-11T06:11:03.055Z,6.50
2018-12-11T06:13:30.519Z,6.60
2018-12-11T06:15:57.939Z,6.90
2018-12-11T06:18:25.428Z,7.20
2018-12-11T06:20:52.857Z,6.70
2018-12-11T06:23:20.271Z,6.70
2018-12-11T06:25:47.734Z,6.90
2018-12-11T06:28:15.159Z,6.40
2018-12-11T06:30:42.609Z,6.60
2018-12-11T06:33:10.169Z,6.90
2018-12-11T06:35:37.606Z,6.70
2018-12-11T06:38:05.095Z,6.40
2018-12-11T06:40:32.543Z,6.30
2018-12-11T06:42:59.978Z,6.40
2018-12-11T06:45:27.465Z,6.40
2018-12-11T06:47:54.920Z,6.20
2018-12-11T06:50:22.378Z,5.60
2018-12-11T06:52:49.835Z,5.80
2018-12-11T06:55:17.262Z,6.30
2018-12-11T06:57:44.695Z,6.80
2018-12-11T07:00:12.201Z,6.80
2018-12-11T07:02:39.679Z,7.20
2018-12-11T07:05:07.150Z,7.00
2018-12-11T07:07:34.590Z,7.30
2018-12-11T07:10:02.059Z,7.20
2018-12-11T07:12:29.477Z,7.20
2018-12-11T07:14:56.903Z,7.00
2018-12-11T07:17:24.411Z,7.20
2018-12-11T07:19:51.839Z,7.20
2018-12-11T07:22:19.266Z,7.30
2018-12-11T07:24:46.799Z,7.30
2018-12-11T07:27:14.223Z,7.50
2018-12-11T07:29:41.650Z,7.60
2018-12-11T07:32:09.068Z,7.10
2018-12-11T07:34:36.494Z,6.90
2018-12-11T07:37:03.974Z,7.30
2018-12-11T07:39:31.393Z,7.10
2018-12-11T07:41:58.882Z,6.90
2018-12-11T07:44:26.361Z,7.30
2018-12-11T07:46:53.853Z,7.50
2018-12-11T07:49:21.281Z,7.30
2018-12-11T07:51:48.710Z,7.00
2018-12-11T07:54:16.182Z,7.30
2018-12-11T07:56:43.665Z,7.30
2018-12-11T07:59:11.116Z,7.20
2018-12-11T08:01:38.559Z,6.90
2018-12-11T08:04:06.011Z,7.30
2018-12-11T08:06:33.513Z,7.60
2018-12-11T08:09:01.010Z,7.90
2018-12-11T08:11:28.495Z,7.40
2018-12-11T08:13:55.950Z,7.40
2018-12-11T08:16:23.707Z,7.40
2018-12-11T08:18:51.362Z,7.40
2018-12-11T08:21:18.793Z,7.50
2018-12-11T08:23:46.267Z,7.90
2018-12-11T08:26:13.738Z,7.50
2018-12-11T08:28:41.195Z,7.40
2018-12-11T08:31:08.618Z,7.40
2018-12-11T08:33:36.115Z,7.50
2018-12-11T08:36:03.597Z,7.70
2018-12-11T08:38:31.147Z,7.40
2018-12-11T08:40:58.568Z,7.40
2018-12-11T08:43:26.056Z,7.90
2018-12-11T08:45:53.606Z,7.50
2018-12-11T08:48:21.102Z,7.40
2018-12-11T08:50:48.558Z,7.70
2018-12-11T08:53:15.999Z,8.00
2018-12-11T08:55:43.439Z,7.80
2018-12-11T08:58:10.866Z,7.90
2018-12-11T09:00:38.361Z,8.30
2018-12-11T09:03:05.777Z,8.10
2018-12-11T09:05:33.208Z,8.30
2018-12-11T09:08:00.635Z,8.40
2018-12-11T09:10:28.067Z,8.60
2018-12-11T09:12:55.517Z,8.70
2018-12-11T09:15:22.970Z,9.00
2018-12-11T09:17:50.397Z,9.00
2018-12-11T09:20:17.827Z,9.70
2018-12-11T09:22:45.269Z,10.00
2018-12-11T09:25:12.731Z,9.60
2018-12-11T09:27:40.184Z,9.50
2018-12-11T09:30:08.265Z,9.20
2018-12-11T09:32:35.827Z,9.30
2018-12-11T09:35:04.015Z,9.10
2018-12-11T09:37:31.542Z,8.90
2018-12-11T09:39:59.008Z,9.00
2018-12-11T09:42:28.060Z,9.30
2018-12-11T09:44:55.729Z,9.10
2018-12-11T09:47:23.148Z,8.30
2018-12-11T09:49:50.631Z,8.50
2018-12-11T09:52:18.107Z,8.60
2018-12-11T09:54:45.529Z,7.90
2018-12-11T09:57:12.951Z,7.60
2018-12-11T09:59:40.414Z,7.70
2018-12-11T10:02:07.884Z,7.90
2018-12-11T10:04:35.339Z,7.90
2018-12-11T10:07:02.792Z,7.80
2018-12-11T10:09:30.266Z,7.80
2018-12-11T10:11:57.701Z,7.70
2018-12-11T10:14:25.134Z,7.80
2018-12-11T10:16:52.568Z,7.40
2018-12-11T10:19:20.131Z,7.60
2018-12-11T10:21:47.615Z,7.60
2018-12-11T10:24:15.194Z,7.90
2018-12-11T10:26:42.734Z,8.40
2018-12-11T10:29:10.148Z,8.20
2018-12-11T10:31:37.670Z,8.50
2018-12-11T10:34:05.155Z,8.60
2018-12-11T10:36:33.122Z,8.60
2018-12-11T10:39:00.554Z,8.80
2018-12-11T10:41:28.024Z,9.30
2018-12-11T10:43:55.483Z,9.90
2018-12-11T10:46:23.053Z,10.50
2018-12-11T10:48:50.474Z,12.00
2018-12-11T10:51:17.908Z,11.70
2018-12-11T10:53:45.412Z,12.50
2018-12-11T10:56:12.883Z,13.70
2018-12-11T10:58:40.301Z,14.80
2018-12-11T11:01:13.329Z,15.50
2018-12-11T11:03:40.874Z,15.00
2018-12-11T11:06:08.341Z,14.50
2018-12-11T11:08:35.761Z,13.80
2018-12-11T11:11:03.212Z,14.40
2018-12-11T11:13:30.775Z,13.50
2018-12-11T11:15:58.239Z,13.40
2018-12-11T11:18:25.786Z,13.70
2018-12-11T11:20:53.292Z,13.40
2018-12-11T11:23:20.831Z,13.20
2018-12-11T11:25:48.289Z,12.80
2018-12-11T11:28:15.746Z,12.20
2018-12-11T11:30:43.218Z,11.50
2018-12-11T11:33:10.677Z,10.70
2018-12-11T11:35:38.289Z,11.10
2018-12-11T11:38:05.735Z,11.10
2018-12-11T11:40:33.258Z,11.10
2018-12-11T11:43:00.712Z,10.60
2018-12-11T11:45:28.222Z,10.50
2018-12-11T11:47:55.659Z,10.50
2018-12-11T11:50:23.346Z,10.70
2018-12-11T11:52:50.804Z,10.50
2018-12-11T11:55:18.314Z,10.20
2018-12-11T11:57:45.743Z,10.40
2018-12-11T12:00:14.157Z,10.30
2018-12-11T12:02:41.635Z,10.10
2018-12-11T12:05:09.117Z,10.20
2018-12-11T12:07:36.616Z,10.40
2018-12-11T12:10:06.612Z,10.80
2018-12-11T12:12:34.092Z,11.10
2018-12-11T12:15:01.528Z,11.20
2018-12-11T12:17:28.954Z,11.00
2018-12-11T12:19:57.201Z,10.70
2018-12-11T12:22:24.642Z,10.60
2018-12-11T12:24:52.100Z,10.50
2018-12-11T12:27:19.675Z,11.00
2018-12-11T12:29:47.136Z,11.30
2018-12-11T12:32:14.562Z,11.50
2018-12-11T12:34:42.030Z,11.60
2018-12-11T12:37:09.617Z,12.10
2018-12-11T12:39:37.058Z,12.10
2018-12-11T12:42:04.522Z,11.90
2018-12-11T12:44:31.951Z,12.30
2018-12-11T12:46:59.502Z,12.50
2018-12-11T12:49:26.966Z,11.70
2018-12-11T12:51:54.455Z,11.10
2018-12-11T12:54:22.023Z,11.00
2018-12-11T12:56:49.507Z,10.80
2018-12-11T12:59:17.000Z,10.50
2018-12-11T13:01:44.496Z,9.80
2018-12-11T13:04:11.948Z,10.10
2018-12-11T13:06:39.740Z,11.10
2018-12-11T13:09:07.238Z,11.40
2018-12-11T13:11:34.689Z,11.90
2018-12-11T13:14:02.162Z,10.90
2018-12-11T13:16:29.683Z,10.70
2018-12-11T13:18:57.118Z,10.60
2018-12-11T13:21:24.554Z,10.90
2018-12-11T13:23:51.984Z,10.70
2018-12-11T13:26:19.505Z,10.40
2018-12-11T13:28:46.936Z,10.30
2018-12-11T13:31:14.425Z,10.20
2018-12-11T13:33:41.954Z,10.60
2018-12-11T13:36:09.411Z,10.20
2018-12-11T13:38:36.844Z,9.70
2018-12-11T13:41:04.293Z,9.90
2018-12-11T13:43:31.845Z,10.20
2018-12-11T13:45:59.341Z,10.30
2018-12-11T13:48:26.968Z,9.80
2018-12-11T13:50:54.546Z,10.20
2018-12-11T13:53:21.985Z,10.20
2018-12-11T13:55:49.481Z,10.40
2018-12-11T13:58:16.925Z,10.50
2018-12-11T14:00:44.395Z,10.80
2018-12-11T14:03:11.875Z,10.70
2018-12-11T14:05:39.310Z,10.60
2018-12-11T14:08:06.774Z,10.60
2018-12-11T14:10:34.195Z,10.10
2018-12-11T14:13:01.673Z,10.20
2018-12-11T14:15:29.120Z,10.00
2018-12-11T14:17:56.566Z,9.70
2018-12-11T14:20:24.017Z,9.60
2018-12-11T14:22:51.433Z,9.90
2018-12-11T14:25:18.973Z,9.50
2018-12-11T14:27:46.437Z,9.60
2018-12-11T14:30:13.963Z,9.90
2018-12-11T14:32:41.365Z,9.30
2018-12-11T14:35:08.903Z,9.30
2018-12-11T14:37:36.322Z,9.30
2018-12-11T14:40:04.883Z,9.10
2018-12-11T14:42:32.326Z,9.20
2018-12-11T14:44:59.731Z,9.20
2018-12-11T14:47:27.191Z,9.50
2018-12-11T14:49:54.613Z,9.60
2018-12-11T14:52:22.514Z,9.90
2018-12-11T14:54:49.939Z,10.40
2018-12-11T14:57:17.471Z,10.00
2018-12-11T14:59:44.887Z,9.80
2018-12-11T15:02:12.383Z,9.90
2018-12-11T15:04:39.803Z,10.20
2018-12-11T15:07:07.249Z,10.00
2018-12-11T15:09:46.976Z,10.00
2018-12-11T15:12:14.434Z,10.30
2018-12-11T15:14:41.954Z,9.90
2018-12-11T15:17:09.387Z,9.80
2018-12-11T15:19:36.893Z,9.70
2018-12-11T15:22:04.436Z,9.60
2018-12-11T15:24:31.861Z,9.20
2018-12-11T15:26:59.313Z,9.40
2018-12-11T15:29:26.739Z,9.40
2018-12-11T15:31:54.250Z,9.50
2018-12-11T15:34:21.855Z,9.80
2018-12-11T15:36:49.266Z,10.00
2018-12-11T15:41:55.779Z,9.50
2018-12-11T15:44:23.310Z,9.40
2018-12-11T15:46:50.798Z,9.30
2018-12-11T15:49:18.356Z,9.50
2018-12-11T15:51:45.899Z,9.70
2018-12-11T15:54:13.330Z,9.80
2018-12-11T15:56:41.319Z,9.80
2018-12-11T15:59:08.873Z,9.90
2018-12-11T16:01:36.310Z,9.80
2018-12-11T16:04:03.875Z,9.50
2018-12-11T16:06:31.336Z,9.60
2018-12-11T16:08:58.805Z,10.00
2018-12-11T16:11:26.249Z,9.70
2018-12-11T16:13:53.728Z,9.90
2018-12-11T16:16:21.183Z,9.90
2018-12-11T16:18:48.610Z,10.20
2018-12-11T16:21:16.037Z,10.20
2018-12-11T16:23:43.474Z,9.90
2018-12-11T16:26:10.918Z,9.70
2018-12-11T16:28:38.358Z,9.50
2018-12-11T16:31:05.806Z,9.50
2018-12-11T16:33:33.834Z,9.20
2018-12-11T16:36:01.232Z,9.00
2018-12-11T16:38:28.645Z,9.10
2018-12-11T16:40:56.077Z,8.90
2018-12-11T16:43:23.601Z,8.90
2018-12-11T16:45:51.024Z,8.80
2018-12-11T16:48:18.477Z,9.20
2018-12-11T16:50:45.915Z,9.30
2018-12-11T16:53:13.362Z,9.40
2018-12-11T16:55:40.819Z,9.20
2018-12-11T16:58:08.298Z,8.50
2018-12-11T17:00:35.814Z,8.70
2018-12-11T17:03:03.230Z,9.40
2018-12-11T17:05:30.759Z,9.70
2018-12-11T17:07:58.180Z,9.70
2018-12-11T17:10:25.661Z,9.80
2018-12-11T17:12:53.143Z,9.70
2018-12-11T17:15:20.973Z,9.50
2018-12-11T17:17:48.420Z,9.50
2018-12-11T17:20:15.832Z,9.50
2018-12-11T17:22:43.382Z,9.60
2018-12-11T17:25:10.807Z,9.60
2018-12-11T17:27:38.294Z,9.60
2018-12-11T17:30:06.357Z,9.50
2018-12-11T17:32:34.027Z,9.60
2018-12-11T17:35:01.549Z,9.10
2018-12-11T17:37:29.076Z,9.40
2018-12-11T17:39:56.662Z,9.30
2018-12-11T17:42:24.061Z,9.20
2018-12-11T17:44:51.490Z,9.10
2018-12-11T17:47:18.926Z,9.30
2018-12-11T17:49:46.438Z,9.20
2018-12-11T17:52:13.984Z,9.20
2018-12-11T17:54:41.418Z,9.10
2018-12-11T17:57:08.923Z,9.30
2018-12-11T17:59:36.362Z,9.50
2018-12-11T18:02:04.537Z,9.70
2018-12-11T18:04:31.982Z,9.70
2018-12-11T18:06:59.398Z,9.40
2018-12-11T18:09:26.817Z,9.20
2018-12-11T18:11:54.262Z,9.50
2018-12-11T18:14:21.746Z,9.40
2018-12-11T18:16:49.201Z,9.70
2018-12-11T18:19:16.660Z,9.90
2018-12-11T18:21:44.109Z,10.00
2018-12-11T18:24:11.550Z,10.20
2018-12-11T18:26:39.046Z,9.70
2018-12-11T18:29:06.558Z,9.90
2018-12-11T18:31:34.196Z,9.80
2018-12-11T18:34:01.747Z,9.60
2018-12-11T18:36:29.178Z,9.90
2018-12-11T18:38:56.644Z,10.00
2018-12-11T18:41:24.161Z,10.00
2018-12-11T18:43:51.586Z,9.80
2018-12-11T18:46:19.021Z,9.50
2018-12-11T18:48:46.519Z,9.70
2018-12-11T18:51:14.098Z,9.50
2018-12-11T18:53:41.580Z,9.30
2018-12-11T18:56:09.014Z,9.60
2018-12-11T18:58:36.443Z,9.60
2018-12-11T19:01:03.896Z,9.40
2018-12-11T19:03:31.376Z,9.50
2018-12-11T19:05:58.852Z,9.70
2018-12-11T19:08:26.349Z,9.90
2018-12-11T19:10:53.849Z,9.60
2018-12-11T19:13:21.326Z,9.40
2018-12-11T19:15:48.849Z,9.50
2018-12-11T19:18:16.412Z,9.60
2018-12-11T19:20:44.066Z,9.70
2018-12-11T19:23:15.343Z,9.80
2018-12-11T19:25:42.750Z,9.70
2018-12-11T19:28:10.174Z,9.40
2018-12-11T19:30:37.607Z,9.50
2018-12-11T19:33:06.378Z,9.70
2018-12-11T19:35:34.206Z,9.70
2018-12-11T19:38:01.639Z,9.70
2018-12-11T19:40:29.109Z,9.70
2018-12-11T19:42:56.533Z,9.40
2018-12-11T19:45:24.001Z,9.60
2018-12-11T19:47:52.668Z,9.70
2018-12-11T19:50:20.263Z,9.50
2018-12-11T19:52:47.713Z,9.70
2018-12-11T19:55:15.164Z,9.80
2018-12-11T19:57:42.614Z,9.80
2018-12-11T20:00:10.401Z,10.00
2018-12-11T20:02:37.934Z,10.00
2018-12-11T20:05:06.231Z,10.00
2018-12-11T20:07:34.422Z,10.10
2018-12-11T20:10:07.736Z,10.20
2018-12-11T20:12:35.191Z,9.80
2018-12-11T20:15:04.908Z,9.50
2018-12-11T20:17:32.244Z,9.70
2018-12-11T20:19:59.662Z,9.80
2018-12-11T20:22:27.111Z,9.80
2018-12-11T20:24:54.532Z,9.50
2018-12-11T20:27:22.046Z,9.20
2018-12-11T20:29:49.474Z,9.40
2018-12-11T20:32:16.988Z,9.40
2018-12-11T20:34:44.432Z,9.50
2018-12-11T20:37:12.097Z,9.40
2018-12-11T20:39:39.577Z,9.20
2018-12-11T20:42:07.061Z,9.30
2018-12-11T20:44:34.491Z,9.30
2018-12-11T20:47:02.019Z,9.40
2018-12-11T20:49:29.450Z,9.50
2018-12-11T20:51:56.930Z,9.50
2018-12-11T20:54:24.369Z,9.60
2018-12-11T20:56:51.840Z,9.40
2018-12-11T20:59:19.266Z,9.40
2018-12-11T21:01:46.761Z,9.40
2018-12-11T21:04:14.199Z,9.30
2018-12-11T21:06:41.693Z,9.20
2018-12-11T21:09:10.399Z,9.30
2018-12-11T21:11:37.846Z,9.30
2018-12-11T21:14:05.413Z,9.40
2018-12-11T21:16:32.843Z,9.40
2018-12-11T21:19:00.717Z,9.40
2018-12-11T21:21:28.441Z,9.40
2018-12-11T21:23:56.518Z,9.50
2018-12-11T21:26:24.044Z,9.60
2018-12-11T21:28:51.463Z,9.60
2018-12-11T21:31:18.902Z,9.70
2018-12-11T21:33:46.348Z,9.70
2018-12-11T21:36:13.771Z,9.70
2018-12-11T21:38:41.213Z,9.60
2018-12-11T21:41:08.663Z,9.60
2018-12-11T21:43:36.102Z,9.60
2018-12-11T21:46:03.651Z,9.30
2018-12-11T21:48:31.098Z,9.30
2018-12-11T21:50:58.582Z,9.40
2018-12-11T21:53:26.083Z,9.30
2018-12-11T21:55:53.602Z,9.40
2018-12-11T21:58:21.057Z,9.30
2018-12-11T22:00:48.478Z,9.40
2018-12-11T22:03:16.232Z,9.60
2018-12-11T22:05:43.677Z,9.60
2018-12-11T22:08:11.214Z,9.70
2018-12-11T22:10:38.647Z,9.60
2018-12-11T22:13:06.097Z,9.60
2018-12-11T22:15:34.462Z,9.60
2018-12-11T22:18:01.911Z,9.60
2018-12-11T22:20:29.333Z,9.60
2018-12-11T22:22:56.763Z,9.60
2018-12-11T22:25:24.230Z,9.60
2018-12-11T22:27:51.685Z,9.60
2018-12-11T22:30:19.168Z,9.60
2018-12-11T22:32:46.598Z,9.60
2018-12-11T22:35:14.050Z,9.50
2018-12-11T22:37:41.483Z,9.50
2018-12-11T22:40:08.983Z,9.50
2018-12-11T22:42:36.450Z,9.50
2018-12-11T22:45:04.343Z,9.50
2018-12-11T22:47:31.770Z,9.50
2018-12-11T22:49:59.326Z,9.50
2018-12-11T22:52:26.790Z,9.50
2018-12-11T22:54:54.223Z,9.50
2018-12-11T22:57:21.668Z,9.60
2018-12-11T22:59:49.097Z,9.60
2018-12-11T23:02:16.555Z,9.50
2018-12-11T23:04:43.998Z,9.50
2018-12-11T23:07:11.465Z,9.40
2018-12-11T23:09:40.843Z,9.50
2018-12-11T23:12:08.281Z,9.50
2018-12-11T23:14:35.739Z,9.30
2018-12-11T23:17:03.330Z,9.40
2018-12-11T23:19:30.759Z,9.50
2018-12-11T23:21:58.207Z,9.50
2018-12-11T23:24:25.766Z,9.50
2018-12-11T23:26:53.314Z,9.50
2018-12-11T23:29:20.878Z,9.60
2018-12-11T23:31:48.303Z,9.70
2018-12-11T23:34:15.794Z,9.80
2018-12-11T23:36:43.268Z,9.80
2018-12-11T23:39:10.773Z,9.70
2018-12-11T23:41:38.272Z,9.80
2018-12-11T23:44:05.749Z,9.80
2018-12-11T23:46:33.191Z,9.80
2018-12-11T23:49:00.647Z,9.80
2018-12-11T23:51:28.074Z,9.80
2018-12-11T23:53:55.575Z,9.90
2018-12-11T23:56:23.034Z,9.60
2018-12-11T23:58:50.570Z,9.60
